Terminal Aerodrome Forecast
Issued by NWS Sterling, VA

Home | Current Version | Previous Version | Text Only | Print | Product List | Glossary On
Versions: 1 2 3 4 5 6 7 8 9 10 11 12 13 14 15 16 17 18 19 20 21
000
FTUS41 KLWX 280543
TAFCHO
TAF
KCHO 280543Z 2806/2906 00000KT 2SM BR BKN020
     FM280800 00000KT 1SM BR BKN020
     FM281200 00000KT 3SM BR BKN050
     FM281300 VRB03KT P6SM BKN050=

USA.gov is the U.S. government's official web portal to all federal, state and local government web resources and services.